createdAt,value
2022-11-07T06:30:55.783Z,10.70
2022-11-07T06:33:23.284Z,10.60
2022-11-07T06:35:50.500Z,10.60
2022-11-07T06:38:17.947Z,10.70
2022-11-07T06:40:45.229Z,10.70
2022-11-07T06:43:16.220Z,10.60
2022-11-07T06:45:45.663Z,10.60
2022-11-07T06:48:13.868Z,10.70
2022-11-07T06:50:41.298Z,10.70
2022-11-07T06:53:11.098Z,10.70
2022-11-07T06:55:39.085Z,10.70
2022-11-07T06:58:07.163Z,10.80
2022-11-07T07:00:37.055Z,10.80
2022-11-07T07:03:06.376Z,10.90
2022-11-07T07:05:35.062Z,11.00
2022-11-07T07:08:08.149Z,11.00
2022-11-07T07:10:38.981Z,11.00
2022-11-07T07:13:06.820Z,10.90
2022-11-07T07:15:47.798Z,11.00
2022-11-07T07:18:19.018Z,11.00
2022-11-07T07:20:48.456Z,11.10
2022-11-07T07:23:19.292Z,10.90
2022-11-07T07:25:48.621Z,11.20
2022-11-07T07:28:17.203Z,11.30
2022-11-07T07:30:51.369Z,11.20
2022-11-07T07:33:21.801Z,11.30
2022-11-07T07:35:49.389Z,11.30
2022-11-07T07:38:17.350Z,11.30
2022-11-07T07:40:44.647Z,11.50
2022-11-07T07:43:12.400Z,11.50
2022-11-07T07:45:39.874Z,11.70
2022-11-07T07:48:07.504Z,11.80
2022-11-07T07:50:35.701Z,11.90
2022-11-07T07:53:08.708Z,12.20
2022-11-07T07:55:37.181Z,12.30
2022-11-07T07:58:04.856Z,12.50
2022-11-07T08:00:32.424Z,12.70
2022-11-07T08:03:02.254Z,12.80
2022-11-07T08:05:30.021Z,12.90
2022-11-07T08:07:58.348Z,12.80
2022-11-07T08:10:42.730Z,12.90
2022-11-07T08:13:11.548Z,12.70
2022-11-07T08:15:40.116Z,12.60
2022-11-07T08:18:07.553Z,12.50
2022-11-07T08:20:35.331Z,12.50
2022-11-07T08:23:05.810Z,12.40
2022-11-07T08:25:35.046Z,12.40
2022-11-07T08:28:02.614Z,12.40
2022-11-07T08:30:31.731Z,12.50
2022-11-07T08:33:00.697Z,12.60
2022-11-07T08:35:27.972Z,12.80
2022-11-07T08:37:55.227Z,13.00
2022-11-07T08:40:22.481Z,12.90
2022-11-07T08:42:49.911Z,13.10
2022-11-07T08:45:17.643Z,13.40
2022-11-07T08:47:44.929Z,14.00
2022-11-07T08:50:12.338Z,14.20
2022-11-07T08:52:42.183Z,14.50
2022-11-07T08:58:24.741Z,15.50
2022-11-07T09:00:57.029Z,14.70
2022-11-07T09:03:45.207Z,13.90
2022-11-07T09:06:26.904Z,14.30
2022-11-07T09:08:56.385Z,14.00
2022-11-07T09:11:24.092Z,13.90
2022-11-07T09:13:54.031Z,13.80
2022-11-07T09:16:25.630Z,13.80
2022-11-07T09:18:54.916Z,13.60
2022-11-07T09:21:23.044Z,13.80
2022-11-07T09:23:52.187Z,13.80
2022-11-07T09:26:19.792Z,13.90
2022-11-07T09:28:52.123Z,14.00
2022-11-07T09:31:21.738Z,14.10
2022-11-07T09:33:50.324Z,14.00
2022-11-07T09:36:17.885Z,14.00
2022-11-07T09:38:50.272Z,14.20
2022-11-07T09:41:55.778Z,14.30
2022-11-07T09:44:54.107Z,14.30
2022-11-07T09:47:29.075Z,14.30
2022-11-07T09:50:01.118Z,14.30
2022-11-07T09:52:48.981Z,14.50
2022-11-07T09:55:38.258Z,14.80
2022-11-07T09:58:19.053Z,14.80
2022-11-07T10:00:47.174Z,14.60
2022-11-07T10:03:17.253Z,14.60
2022-11-07T10:06:25.096Z,14.10
2022-11-07T10:09:27.805Z,14.80
2022-11-07T10:12:25.155Z,15.60
2022-11-07T10:15:03.893Z,15.30
2022-11-07T10:17:56.875Z,16.80
2022-11-07T10:21:35.817Z,14.50
2022-11-07T10:24:17.990Z,16.20
2022-11-07T10:26:46.384Z,17.10
2022-11-07T10:29:17.215Z,17.60
2022-11-07T10:32:16.425Z,18.60
2022-11-07T10:34:54.588Z,18.40
2022-11-07T10:37:27.406Z,18.40
2022-11-07T10:39:55.294Z,18.30
2022-11-07T10:42:35.048Z,17.60
2022-11-07T10:45:06.456Z,18.00
2022-11-07T10:47:34.526Z,18.60
2022-11-07T10:50:46.161Z,17.80
2022-11-07T10:53:23.093Z,16.90
2022-11-07T10:55:55.621Z,17.60
2022-11-07T10:58:32.553Z,18.70
2022-11-07T11:01:06.927Z,16.60
2022-11-07T11:04:55.648Z,14.90
2022-11-07T11:07:37.823Z,16.00
2022-11-07T11:10:21.564Z,14.90
2022-11-07T11:12:50.691Z,16.70
2022-11-07T11:15:32.870Z,15.40
2022-11-07T11:18:06.812Z,15.20
2022-11-07T11:20:40.042Z,16.10
2022-11-07T11:23:38.793Z,16.40
2022-11-07T11:26:22.067Z,15.90
2022-11-07T11:28:53.428Z,14.80
2022-11-07T11:31:37.684Z,14.60
2022-11-07T11:34:32.994Z,14.50
2022-11-07T11:37:18.998Z,15.00
2022-11-07T11:40:02.486Z,14.80
2022-11-07T11:42:59.890Z,14.70
2022-11-07T11:45:56.077Z,14.60
2022-11-07T11:48:30.239Z,14.90
2022-11-07T11:51:05.530Z,15.00
2022-11-07T11:53:33.838Z,15.10
2022-11-07T11:59:47.848Z,15.30
2022-11-07T12:02:38.915Z,15.20
2022-11-07T12:10:59.971Z,16.10
2022-11-07T12:13:49.015Z,16.40
2022-11-07T12:16:39.971Z,15.80
2022-11-07T12:19:47.204Z,15.70
2022-11-07T12:22:34.958Z,16.30
2022-11-07T12:26:03.776Z,15.70
2022-11-07T12:31:53.563Z,14.40
2022-11-07T12:34:46.896Z,15.40
2022-11-07T12:37:45.463Z,15.20
2022-11-07T12:40:28.903Z,15.20
2022-11-07T12:43:36.646Z,15.30
2022-11-07T12:46:33.388Z,15.30
2022-11-07T12:49:40.941Z,15.30
2022-11-07T12:52:24.060Z,15.20
2022-11-07T12:55:22.089Z,15.40
2022-11-07T12:57:56.039Z,15.40
2022-11-07T13:00:30.436Z,15.40
2022-11-07T13:03:38.109Z,15.40
2022-11-07T13:06:32.226Z,15.40
2022-11-07T13:09:31.946Z,15.30
2022-11-07T13:14:48.662Z,15.40
2022-11-07T13:17:31.188Z,15.50
2022-11-07T13:20:04.883Z,15.50
2022-11-07T13:22:37.112Z,15.40
2022-11-07T13:25:22.115Z,15.30
2022-11-07T13:28:01.488Z,15.20
2022-11-07T13:33:07.841Z,15.10
2022-11-07T13:35:37.664Z,14.90
2022-11-07T13:40:58.497Z,15.10
2022-11-07T13:43:42.270Z,14.70
2022-11-07T13:46:19.225Z,14.60
2022-11-07T13:48:53.827Z,14.60
2022-11-07T13:51:32.372Z,14.60
2022-11-07T13:54:33.676Z,14.60
2022-11-07T13:57:13.129Z,14.70
2022-11-07T14:00:01.989Z,14.60
2022-11-07T14:02:32.615Z,14.70
2022-11-07T14:05:20.272Z,14.80
2022-11-07T14:08:00.585Z,15.00
2022-11-07T14:10:35.452Z,14.90
2022-11-07T14:13:07.742Z,14.90
2022-11-07T14:15:43.407Z,14.80
2022-11-07T14:18:16.226Z,14.90
2022-11-07T14:20:47.684Z,14.80
2022-11-07T14:23:15.358Z,14.80
2022-11-07T14:25:42.669Z,14.80
2022-11-07T14:28:17.802Z,14.70
2022-11-07T14:30:50.481Z,14.80
2022-11-07T14:33:21.389Z,14.70
2022-11-07T14:35:50.795Z,14.70
2022-11-07T14:38:25.389Z,14.60
2022-11-07T14:40:55.905Z,14.60
2022-11-07T14:43:25.637Z,14.60
2022-11-07T14:46:16.853Z,14.50
2022-11-07T14:48:47.725Z,14.50
2022-11-07T14:51:18.458Z,14.40
2022-11-07T14:54:04.883Z,14.30
2022-11-07T14:56:38.369Z,14.40
2022-11-07T14:59:17.701Z,14.40
2022-11-07T15:02:13.793Z,14.30
2022-11-07T15:04:47.670Z,14.30
2022-11-07T15:07:33.474Z,14.30
2022-11-07T15:10:26.217Z,14.30
2022-11-07T15:12:57.160Z,14.30
2022-11-07T15:15:29.093Z,14.30
2022-11-07T15:17:59.285Z,14.20
2022-11-07T15:20:38.472Z,14.10
2022-11-07T15:25:54.470Z,14.10
2022-11-07T15:28:45.333Z,14.00
2022-11-07T15:31:30.223Z,13.90
2022-11-07T15:33:59.332Z,13.90
2022-11-07T15:36:26.992Z,14.00
2022-11-07T15:38:55.865Z,14.00
2022-11-07T15:41:23.032Z,14.00
2022-11-07T15:43:50.259Z,14.00
2022-11-07T15:46:28.499Z,14.00
2022-11-07T15:48:57.168Z,14.00
2022-11-07T15:51:24.455Z,13.90
2022-11-07T15:53:51.768Z,13.90
2022-11-07T15:56:22.189Z,13.90
2022-11-07T15:58:50.186Z,13.80
2022-11-07T16:01:18.039Z,13.80
2022-11-07T16:03:45.279Z,13.60
2022-11-07T16:06:32.278Z,13.60
2022-11-07T16:08:59.639Z,13.40
2022-11-07T16:11:27.167Z,13.30
2022-11-07T16:14:14.686Z,13.20
2022-11-07T16:16:43.459Z,13.10
2022-11-07T16:19:22.236Z,12.90
2022-11-07T16:21:49.477Z,12.80
2022-11-07T16:24:16.763Z,12.60
2022-11-07T16:26:46.138Z,12.50
2022-11-07T16:29:14.339Z,12.40
2022-11-07T16:31:42.319Z,12.40
2022-11-07T16:34:10.910Z,12.40
2022-11-07T16:36:39.160Z,12.30
2022-11-07T16:39:20.040Z,12.30
2022-11-07T16:41:48.090Z,12.30
2022-11-07T16:44:15.442Z,12.20
2022-11-07T16:46:42.939Z,12.10
2022-11-07T16:49:26.179Z,12.10
2022-11-07T16:51:53.340Z,12.00
2022-11-07T16:54:20.363Z,12.00
2022-11-07T16:56:51.279Z,12.00
2022-11-07T16:59:22.404Z,12.00
